createdAt,value
2019-05-28T00:00:52.871Z,6.73
2019-05-28T00:03:21.281Z,5.53
2019-05-28T00:05:49.722Z,6.23
2019-05-28T00:08:18.125Z,7.13
2019-05-28T00:10:46.549Z,5.47
2019-05-28T00:13:15.031Z,6.40
2019-05-28T00:15:43.462Z,5.40
2019-05-28T00:18:11.858Z,5.92
2019-05-28T00:20:40.281Z,7.07
2019-05-28T00:23:08.694Z,8.63
2019-05-28T00:25:37.122Z,7.07
2019-05-28T00:28:06.125Z,5.90
2019-05-28T00:30:34.549Z,7.27
2019-05-28T00:33:02.955Z,7.47
2019-05-28T00:35:31.380Z,7.47
2019-05-28T00:37:59.773Z,6.00
2019-05-28T00:40:28.201Z,5.80
2019-05-28T00:42:56.669Z,7.57
2019-05-28T00:45:25.639Z,7.60
2019-05-28T00:47:54.041Z,6.57
2019-05-28T00:50:22.478Z,7.80
2019-05-28T00:52:50.875Z,7.12
2019-05-28T00:55:19.434Z,7.70
2019-05-28T00:57:49.141Z,7.53
2019-05-28T01:00:35.916Z,9.73
2019-05-28T01:02:49.409Z,5.50
2019-05-28T01:05:17.829Z,6.80
2019-05-28T01:07:46.243Z,5.10
2019-05-28T01:10:15.294Z,6.03
2019-05-28T01:12:43.701Z,6.83
2019-05-28T01:15:12.181Z,6.42
2019-05-28T01:17:40.675Z,5.70
2019-05-28T01:20:09.427Z,7.30
2019-05-28T01:22:37.820Z,6.43
2019-05-28T01:25:07.186Z,5.97
2019-05-28T01:27:35.653Z,7.97
2019-05-28T01:30:07.766Z,6.23
2019-05-28T01:32:36.204Z,8.90
2019-05-28T01:35:08.058Z,7.73
2019-05-28T01:37:36.451Z,6.63
2019-05-28T01:40:09.795Z,7.20
2019-05-28T01:42:38.299Z,6.13
2019-05-28T01:45:07.383Z,7.47
2019-05-28T01:47:36.076Z,5.80
2019-05-28T01:50:08.737Z,8.80
2019-05-28T01:52:37.181Z,7.97
2019-05-28T01:55:07.262Z,5.37
2019-05-28T01:57:35.745Z,6.13
2019-05-28T02:00:09.367Z,7.35
2019-05-28T02:02:37.763Z,7.20
2019-05-28T02:05:10.111Z,5.20
2019-05-28T02:07:38.536Z,8.13
2019-05-28T02:10:07.612Z,7.40
2019-05-28T02:12:36.008Z,7.27
2019-05-28T02:15:09.809Z,6.10
2019-05-28T02:17:38.264Z,10.73
2019-05-28T02:20:08.927Z,6.53
2019-05-28T02:22:37.546Z,6.77
2019-05-28T02:25:07.582Z,6.10
2019-05-28T02:27:36.009Z,7.40
2019-05-28T02:30:07.768Z,7.23
2019-05-28T02:32:36.189Z,6.57
2019-05-28T02:35:06.435Z,7.10
2019-05-28T02:37:34.925Z,7.00
2019-05-28T02:40:05.484Z,6.93
2019-05-28T02:42:33.911Z,6.25
2019-05-28T02:45:02.311Z,9.10
2019-05-28T02:47:30.747Z,6.60
2019-05-28T02:49:59.150Z,6.50
2019-05-28T02:52:28.014Z,8.20
2019-05-28T02:54:56.576Z,7.97
2019-05-28T02:57:27.136Z,7.20
2019-05-28T02:59:58.749Z,10.07
2019-05-28T03:02:29.675Z,6.57
2019-05-28T03:05:00.798Z,8.17
2019-05-28T03:07:30.958Z,7.40
2019-05-28T03:10:02.501Z,7.33
2019-05-28T03:12:30.942Z,5.75
2019-05-28T03:14:59.502Z,7.73
2019-05-28T03:17:31.109Z,9.98
2019-05-28T03:20:02.261Z,8.83
2019-05-28T03:22:34.094Z,6.27
2019-05-28T03:25:04.928Z,6.87
2019-05-28T03:27:33.524Z,6.97
2019-05-28T03:30:01.925Z,7.67
2019-05-28T03:32:30.352Z,8.67
2019-05-28T03:34:58.749Z,6.37
2019-05-28T03:37:27.643Z,6.63
2019-05-28T03:39:57.676Z,6.70
2019-05-28T03:42:26.073Z,6.60
2019-05-28T03:44:54.501Z,7.87
2019-05-28T03:47:22.930Z,8.63
2019-05-28T03:49:51.435Z,6.23
2019-05-28T03:52:19.829Z,11.05
2019-05-28T03:54:48.249Z,10.73
2019-05-28T03:57:17.265Z,8.00
2019-05-28T03:59:45.709Z,7.30
2019-05-28T04:02:23.096Z,8.97
2019-05-28T04:04:44.292Z,6.50
2019-05-28T04:07:12.701Z,5.97
2019-05-28T04:09:41.129Z,7.13
2019-05-28T04:12:09.525Z,7.72
2019-05-28T04:14:37.958Z,11.10
2019-05-28T04:17:06.356Z,7.63
2019-05-28T04:19:34.795Z,7.77
2019-05-28T04:22:03.183Z,8.03
2019-05-28T04:24:31.615Z,10.97
2019-05-28T04:27:00.008Z,7.67
2019-05-28T04:29:28.447Z,7.97
2019-05-28T04:31:56.853Z,8.20
2019-05-28T04:34:25.282Z,12.13
2019-05-28T04:36:53.680Z,7.40
2019-05-28T04:39:22.149Z,6.37
2019-05-28T04:41:50.593Z,6.97
2019-05-28T04:44:18.985Z,8.07
2019-05-28T04:46:47.394Z,6.70
2019-05-28T04:49:15.920Z,8.10
2019-05-28T04:51:44.321Z,7.30
2019-05-28T04:54:12.718Z,8.78
2019-05-28T04:56:41.132Z,9.53
2019-05-28T04:59:09.596Z,8.73
2019-05-28T05:01:38.050Z,7.72
2019-05-28T05:04:06.586Z,8.33
2019-05-28T05:06:35.024Z,9.30
2019-05-28T05:09:06.654Z,6.10
2019-05-28T05:11:35.049Z,8.17
2019-05-28T05:14:03.481Z,8.33
2019-05-28T05:16:31.930Z,10.30
2019-05-28T05:19:00.333Z,7.07
2019-05-28T05:21:28.771Z,10.27
2019-05-28T05:23:57.179Z,7.23
2019-05-28T05:26:25.566Z,7.13
2019-05-28T05:28:53.989Z,5.05
2019-05-28T05:31:22.389Z,10.13
2019-05-28T05:33:50.805Z,8.00
2019-05-28T05:36:19.221Z,8.70
2019-05-28T05:38:47.632Z,7.97
2019-05-28T05:41:16.049Z,7.17
2019-05-28T05:43:44.495Z,5.93
2019-05-28T05:46:12.889Z,7.97
2019-05-28T05:48:41.287Z,9.10
2019-05-28T05:51:09.784Z,6.67
2019-05-28T05:53:38.191Z,7.63
2019-05-28T05:56:06.582Z,7.30
2019-05-28T05:58:35.010Z,10.63
2019-05-28T06:01:03.474Z,6.13
2019-05-28T06:03:40.271Z,10.37
2019-05-28T06:06:02.047Z,6.60
2019-05-28T06:08:30.449Z,10.37
2019-05-28T06:10:58.838Z,8.23
2019-05-28T06:13:27.386Z,5.83
2019-05-28T06:15:55.781Z,8.63
2019-05-28T06:18:24.203Z,8.53
2019-05-28T06:21:07.572Z,6.93
2019-05-28T06:23:22.769Z,9.67
2019-05-28T06:25:51.161Z,7.50
2019-05-28T06:28:19.622Z,7.47
2019-05-28T06:30:48.096Z,10.33
2019-05-28T06:33:16.508Z,7.07
2019-05-28T06:35:44.933Z,7.43
2019-05-28T06:38:13.338Z,11.50
2019-05-28T06:40:41.729Z,8.83
2019-05-28T06:43:10.173Z,8.80
2019-05-28T06:45:38.568Z,9.87
2019-05-28T06:48:07.037Z,10.13
2019-05-28T06:50:35.473Z,10.53
2019-05-28T06:53:03.923Z,12.40
2019-05-28T06:55:32.384Z,10.63
2019-05-28T06:58:00.844Z,13.97
2019-05-28T07:00:29.517Z,9.70
2019-05-28T07:02:57.953Z,9.27
2019-05-28T07:05:26.347Z,8.03
2019-05-28T07:07:54.802Z,9.50
2019-05-28T07:10:23.662Z,10.30
2019-05-28T07:12:52.090Z,11.57
2019-05-28T07:15:20.552Z,8.70
2019-05-28T07:17:48.987Z,10.63
2019-05-28T07:20:17.532Z,13.45
2019-05-28T07:22:46.022Z,10.67
2019-05-28T07:25:14.711Z,10.57
2019-05-28T07:27:43.115Z,11.67
2019-05-28T07:30:11.836Z,9.68
2019-05-28T07:32:40.267Z,10.83
2019-05-28T07:35:08.805Z,9.03
2019-05-28T07:37:37.229Z,8.60
2019-05-28T07:40:07.357Z,10.87
2019-05-28T07:42:35.749Z,14.47
2019-05-28T07:45:04.865Z,10.03
2019-05-28T07:47:33.262Z,21.10
2019-05-28T07:50:01.690Z,11.43
2019-05-28T07:52:30.103Z,10.13
2019-05-28T07:54:58.640Z,17.80
2019-05-28T07:57:27.096Z,10.73
2019-05-28T07:59:55.514Z,10.13
2019-05-28T08:02:23.980Z,11.50
2019-05-28T08:04:52.628Z,11.03
2019-05-28T08:07:21.031Z,11.30
2019-05-28T08:09:49.655Z,12.28
2019-05-28T08:12:18.060Z,10.83
2019-05-28T08:14:46.630Z,10.13
2019-05-28T08:17:15.030Z,10.77
2019-05-28T08:19:43.483Z,10.30
2019-05-28T08:22:13.772Z,10.95
2019-05-28T08:24:42.010Z,12.83
2019-05-28T08:27:10.434Z,10.80
2019-05-28T08:29:39.053Z,9.27
2019-05-28T08:32:07.449Z,12.73
2019-05-28T08:34:35.900Z,9.53
2019-05-28T08:37:06.467Z,10.77
2019-05-28T08:39:34.434Z,13.27
2019-05-28T08:42:03.013Z,12.97
2019-05-28T08:44:31.397Z,7.57
2019-05-28T08:46:59.812Z,10.70
2019-05-28T08:49:28.277Z,9.50
2019-05-28T08:51:56.684Z,9.87
2019-05-28T08:54:25.087Z,8.43
2019-05-28T08:56:53.580Z,9.47
2019-05-28T08:59:22.193Z,8.93
2019-05-28T09:01:50.585Z,10.27
2019-05-28T09:04:19.016Z,11.00
2019-05-28T09:06:47.413Z,12.50
2019-05-28T09:09:15.832Z,11.67
2019-05-28T09:11:44.254Z,11.57
2019-05-28T09:14:12.744Z,9.83
2019-05-28T09:16:41.226Z,5.63
2019-05-28T09:19:10.479Z,9.50
2019-05-28T09:21:39.177Z,9.93
2019-05-28T09:24:07.589Z,8.67
2019-05-28T09:26:36.172Z,8.03
2019-05-28T09:29:04.766Z,8.70
2019-05-28T09:31:33.169Z,10.07
2019-05-28T09:34:01.615Z,9.37
2019-05-28T09:36:30.005Z,8.63
2019-05-28T09:38:58.419Z,8.97
2019-05-28T09:41:26.897Z,7.73
2019-05-28T09:43:55.373Z,8.10
2019-05-28T09:46:23.792Z,10.53
2019-05-28T09:48:52.221Z,9.77
2019-05-28T09:51:20.627Z,7.70
2019-05-28T09:53:49.025Z,8.50
2019-05-28T09:56:17.484Z,8.50
2019-05-28T09:58:45.890Z,7.30
2019-05-28T10:01:14.448Z,8.80
2019-05-28T10:03:42.888Z,8.13
2019-05-28T10:06:16.853Z,12.35
2019-05-28T10:08:41.459Z,7.43
2019-05-28T10:11:09.926Z,10.43
2019-05-28T10:13:41.133Z,7.23
2019-05-28T10:16:08.592Z,9.47
2019-05-28T10:18:36.983Z,6.00
2019-05-28T10:21:17.953Z,8.83
2019-05-28T10:23:35.534Z,7.90
2019-05-28T10:26:04.116Z,8.20
2019-05-28T10:28:32.525Z,8.73
2019-05-28T10:31:00.990Z,7.40
2019-05-28T10:33:29.396Z,7.67
2019-05-28T10:35:57.789Z,8.27
2019-05-28T10:38:26.557Z,6.20
2019-05-28T10:40:54.959Z,5.55
2019-05-28T10:43:23.357Z,7.53
2019-05-28T10:45:51.891Z,4.00
2019-05-28T10:48:20.898Z,6.05
2019-05-28T10:50:50.106Z,9.83
2019-05-28T10:53:18.525Z,7.20
2019-05-28T10:55:47.220Z,9.80
2019-05-28T10:58:15.654Z,6.45
2019-05-28T11:00:44.124Z,7.27
2019-05-28T11:03:12.565Z,7.97
2019-05-28T11:05:41.017Z,10.60
2019-05-28T11:08:09.463Z,8.87
2019-05-28T11:10:37.905Z,11.73
2019-05-28T11:13:06.558Z,8.73
2019-05-28T11:15:34.970Z,7.77
2019-05-28T11:18:03.372Z,9.87
2019-05-28T11:20:32.137Z,6.80
2019-05-28T11:23:00.539Z,6.40
2019-05-28T11:25:29.090Z,6.13
2019-05-28T11:27:57.516Z,5.87
2019-05-28T11:30:26.265Z,4.80
2019-05-28T11:32:54.689Z,5.27
2019-05-28T11:35:23.440Z,6.47
2019-05-28T11:37:51.967Z,8.70
2019-05-28T11:40:20.718Z,9.50
2019-05-28T11:42:49.164Z,5.67
2019-05-28T11:45:19.872Z,4.13
2019-05-28T11:47:50.928Z,2.83
2019-05-28T11:50:19.598Z,2.47
2019-05-28T11:52:48.034Z,3.73
2019-05-28T11:55:17.469Z,1.37
2019-05-28T11:57:45.871Z,2.83
2019-05-28T12:00:15.509Z,2.73
2019-05-28T12:02:43.989Z,1.90
2019-05-28T12:05:14.262Z,1.47
2019-05-28T12:07:42.715Z,2.27
2019-05-28T12:10:11.718Z,1.70
2019-05-28T12:12:40.176Z,3.67
2019-05-28T12:15:10.467Z,4.23
2019-05-28T12:17:43.644Z,2.23
2019-05-28T12:20:10.019Z,1.87
2019-05-28T12:22:38.516Z,3.40
2019-05-28T12:25:08.565Z,3.60
2019-05-28T12:27:36.971Z,2.20
2019-05-28T12:30:10.161Z,1.80
2019-05-28T12:32:38.720Z,2.13
2019-05-28T12:35:26.606Z,3.67
2019-05-28T12:37:48.200Z,1.87
2019-05-28T12:40:09.426Z,6.23
2019-05-28T12:42:37.822Z,1.93
2019-05-28T12:45:11.888Z,2.33
2019-05-28T12:47:40.314Z,4.53
2019-05-28T12:50:19.235Z,2.33
2019-05-28T12:52:39.828Z,3.60
2019-05-28T12:55:10.312Z,1.27
2019-05-28T12:57:38.782Z,1.37
2019-05-28T13:00:11.952Z,1.73
2019-05-28T13:02:40.461Z,2.37
2019-05-28T13:05:14.696Z,1.60
2019-05-28T13:07:43.093Z,1.30
2019-05-28T13:10:11.948Z,1.53
2019-05-28T13:12:40.582Z,2.87
2019-05-28T13:15:09.645Z,1.42
2019-05-28T13:17:38.157Z,1.53
2019-05-28T13:20:09.871Z,3.57
2019-05-28T13:22:38.478Z,2.27
2019-05-28T13:25:07.908Z,2.10
2019-05-28T13:27:36.377Z,1.80
2019-05-28T13:30:10.257Z,3.67
2019-05-28T13:32:39.036Z,1.47
2019-05-28T13:35:09.123Z,1.53
2019-05-28T13:37:37.531Z,1.47
2019-05-28T13:40:08.020Z,2.53
2019-05-28T13:42:36.492Z,1.57
2019-05-28T13:45:08.585Z,2.50
2019-05-28T13:47:37.022Z,0.97
2019-05-28T13:50:12.084Z,1.60
2019-05-28T13:52:41.066Z,2.10
2019-05-28T13:55:11.504Z,1.70
2019-05-28T13:57:40.107Z,2.03
2019-05-28T14:00:11.169Z,2.07
2019-05-28T14:02:40.249Z,2.47
2019-05-28T14:05:09.177Z,2.50
2019-05-28T14:07:37.961Z,2.70
2019-05-28T14:10:08.324Z,3.50
2019-05-28T14:12:36.723Z,2.23
2019-05-28T14:15:08.795Z,2.20
2019-05-28T14:17:37.276Z,1.97
2019-05-28T14:20:07.345Z,5.40
2019-05-28T14:22:36.442Z,2.63
2019-05-28T14:25:06.440Z,1.75
2019-05-28T14:27:34.997Z,2.43
2019-05-28T14:30:10.342Z,3.97
2019-05-28T14:32:38.751Z,3.03
2019-05-28T14:35:07.710Z,3.37
2019-05-28T14:37:36.169Z,6.00
2019-05-28T14:40:05.841Z,2.97
2019-05-28T14:42:34.232Z,6.03
2019-05-28T14:45:02.729Z,4.93
2019-05-28T14:47:31.152Z,4.27
2019-05-28T14:49:59.573Z,2.37
2019-05-28T14:52:27.973Z,3.63
2019-05-28T14:54:56.397Z,3.10
2019-05-28T14:57:24.810Z,3.33
2019-05-28T14:59:53.259Z,5.37
2019-05-28T15:02:21.737Z,2.93
2019-05-28T15:04:50.615Z,3.67
2019-05-28T15:07:19.040Z,3.97
2019-05-28T15:09:47.458Z,3.73
2019-05-28T15:12:15.895Z,2.80
2019-05-28T15:14:44.378Z,2.67
2019-05-28T15:17:12.819Z,10.27
2019-05-28T15:19:41.208Z,3.83
2019-05-28T15:22:09.736Z,5.37
2019-05-28T15:24:38.355Z,4.20
2019-05-28T15:27:06.777Z,4.20
2019-05-28T15:29:35.201Z,3.27
2019-05-28T15:32:03.682Z,2.40
2019-05-28T15:34:32.108Z,3.37
2019-05-28T15:37:00.517Z,3.33
2019-05-28T15:39:39.681Z,4.53
2019-05-28T15:41:59.045Z,2.70
2019-05-28T15:44:27.448Z,3.30
2019-05-28T15:46:55.889Z,2.77
2019-05-28T15:49:24.532Z,3.73
2019-05-28T15:52:06.966Z,2.47
2019-05-28T15:54:23.146Z,2.50
2019-05-28T15:56:51.579Z,1.67
2019-05-28T15:59:19.981Z,1.70
2019-05-28T16:01:48.420Z,3.30
2019-05-28T16:04:16.809Z,5.57
2019-05-28T16:06:45.263Z,2.47
2019-05-28T16:09:13.741Z,1.97
2019-05-28T16:11:42.177Z,2.60
2019-05-28T16:14:10.581Z,2.15
2019-05-28T16:16:39.013Z,2.57
2019-05-28T16:19:07.411Z,2.73
2019-05-28T16:21:35.840Z,2.97
2019-05-28T16:24:05.095Z,3.10
2019-05-28T16:26:33.529Z,2.80
2019-05-28T16:29:01.909Z,3.03
2019-05-28T16:31:30.368Z,3.67
2019-05-28T16:33:58.772Z,3.43
2019-05-28T16:36:27.227Z,3.90
2019-05-28T16:38:55.651Z,3.90
2019-05-28T16:41:24.066Z,4.30
2019-05-28T16:43:52.657Z,5.90
2019-05-28T16:46:21.161Z,3.57
2019-05-28T16:48:49.653Z,3.43
2019-05-28T16:51:18.044Z,3.93
2019-05-28T16:53:46.551Z,3.40
2019-05-28T16:56:14.949Z,4.53
2019-05-28T16:58:43.380Z,5.87
2019-05-28T17:01:22.401Z,4.40
2019-05-28T17:03:41.921Z,5.50
2019-05-28T17:06:10.315Z,4.87
2019-05-28T17:08:38.753Z,5.80
2019-05-28T17:11:07.200Z,6.40
2019-05-28T17:13:35.734Z,4.23
2019-05-28T17:16:04.369Z,4.47
2019-05-28T17:18:32.794Z,4.80
2019-05-28T17:21:01.207Z,5.03
2019-05-28T17:23:29.635Z,3.63
2019-05-28T17:25:58.044Z,4.30
2019-05-28T17:28:26.485Z,4.40
2019-05-28T17:30:54.893Z,4.35
2019-05-28T17:33:23.361Z,4.17
2019-05-28T17:35:51.759Z,4.23
2019-05-28T17:38:20.179Z,3.30
2019-05-28T17:40:49.125Z,2.83
2019-05-28T17:43:17.722Z,3.67
2019-05-28T17:45:48.908Z,2.50
2019-05-28T17:48:17.314Z,2.60
2019-05-28T17:50:45.746Z,4.03
2019-05-28T17:53:14.169Z,2.10
2019-05-28T17:55:43.037Z,2.10
2019-05-28T17:58:11.460Z,2.60
2019-05-28T18:00:39.878Z,2.23
2019-05-28T18:03:08.282Z,2.40
2019-05-28T18:05:36.704Z,2.20
2019-05-28T18:08:05.954Z,2.50
2019-05-28T18:10:34.373Z,3.03
2019-05-28T18:13:02.817Z,2.77
2019-05-28T18:15:31.205Z,3.30
2019-05-28T18:17:59.641Z,3.50
2019-05-28T18:20:28.039Z,3.83
2019-05-28T18:22:56.434Z,4.07
2019-05-28T18:25:24.864Z,4.60
2019-05-28T18:27:53.277Z,3.90
2019-05-28T18:30:21.766Z,3.23
2019-05-28T18:32:50.160Z,3.73
2019-05-28T18:35:18.601Z,3.70
2019-05-28T18:37:46.998Z,3.97
2019-05-28T18:40:16.627Z,6.50
2019-05-28T18:42:45.020Z,7.27
2019-05-28T18:45:13.781Z,8.93
2019-05-28T18:47:42.191Z,10.03
2019-05-28T18:50:11.065Z,10.10
2019-05-28T18:52:39.457Z,10.10
2019-05-28T18:55:08.313Z,9.70
2019-05-28T18:57:36.818Z,9.17
2019-05-28T19:00:08.474Z,8.03
2019-05-28T19:02:37.058Z,9.10
2019-05-28T19:05:08.809Z,8.43
2019-05-28T19:07:37.204Z,7.50
2019-05-28T19:10:06.818Z,7.70
2019-05-28T19:12:35.206Z,7.50
2019-05-28T19:15:08.749Z,7.22
2019-05-28T19:17:37.164Z,7.07
2019-05-28T19:20:07.073Z,6.63
2019-05-28T19:22:35.496Z,6.43
2019-05-28T19:25:11.629Z,5.85
2019-05-28T19:27:40.025Z,5.77
2019-05-28T19:30:09.007Z,5.97
2019-05-28T19:32:37.629Z,3.80
2019-05-28T19:35:08.193Z,3.90
2019-05-28T19:37:37.140Z,3.70
2019-05-28T19:40:08.964Z,2.80
2019-05-28T19:42:37.353Z,4.70
2019-05-28T19:45:09.941Z,2.83
2019-05-28T19:47:38.338Z,2.90
2019-05-28T19:50:09.796Z,2.57
2019-05-28T19:52:38.191Z,2.30
2019-05-28T19:55:07.050Z,10.77
2019-05-28T19:57:35.470Z,2.93
2019-05-28T20:00:06.951Z,3.17
2019-05-28T20:02:35.397Z,3.83
2019-05-28T20:05:04.835Z,4.05
2019-05-28T20:07:33.229Z,3.80
2019-05-28T20:10:02.176Z,4.07
2019-05-28T20:12:30.710Z,5.50
2019-05-28T20:14:59.115Z,4.63
2019-05-28T20:17:27.500Z,4.83
2019-05-28T20:19:57.584Z,4.50
2019-05-28T20:22:26.093Z,4.80
2019-05-28T20:24:54.533Z,5.90
2019-05-28T20:27:22.944Z,4.40
2019-05-28T20:29:51.354Z,4.40
2019-05-28T20:32:19.785Z,4.40
2019-05-28T20:34:48.288Z,4.90
2019-05-28T20:37:16.720Z,4.27
2019-05-28T20:39:45.111Z,4.87
2019-05-28T20:42:26.202Z,5.30
2019-05-28T20:44:43.680Z,4.60
2019-05-28T20:47:12.168Z,5.37
2019-05-28T20:49:40.564Z,6.20
2019-05-28T20:52:09.204Z,6.47
2019-05-28T20:54:37.701Z,6.83
2019-05-28T20:57:06.124Z,7.87
2019-05-28T20:59:34.534Z,6.60
2019-05-28T21:02:02.976Z,10.23
2019-05-28T21:04:31.372Z,7.50
2019-05-28T21:06:59.788Z,8.00
2019-05-28T21:09:28.208Z,8.83
2019-05-28T21:11:56.709Z,7.87
2019-05-28T21:14:25.115Z,8.60
2019-05-28T21:16:53.552Z,8.77
2019-05-28T21:19:22.109Z,9.97
2019-05-28T21:21:51.414Z,7.63
2019-05-28T21:24:19.956Z,9.13
2019-05-28T21:26:48.398Z,7.80
2019-05-28T21:29:16.806Z,9.40
2019-05-28T21:31:45.319Z,10.43
2019-05-28T21:34:13.727Z,8.73
2019-05-28T21:36:42.153Z,7.90
2019-05-28T21:39:10.545Z,7.60
2019-05-28T21:41:38.976Z,7.50
2019-05-28T21:44:07.387Z,7.90
2019-05-28T21:46:35.824Z,7.83
2019-05-28T21:49:04.217Z,8.73
2019-05-28T21:51:32.674Z,8.67
2019-05-28T21:54:01.557Z,8.47
2019-05-28T21:56:30.219Z,8.67
2019-05-28T21:58:59.518Z,9.97
2019-05-28T22:01:30.543Z,7.50
2019-05-28T22:03:59.457Z,7.37
2019-05-28T22:06:27.956Z,9.27
2019-05-28T22:08:57.641Z,11.30
2019-05-28T22:11:26.233Z,9.13
2019-05-28T22:13:55.955Z,8.60
2019-05-28T22:16:24.408Z,8.07
2019-05-28T22:18:52.837Z,6.27
2019-05-28T22:21:21.246Z,7.60
2019-05-28T22:23:49.679Z,7.83
2019-05-28T22:26:18.132Z,9.30
2019-05-28T22:28:46.552Z,8.60
2019-05-28T22:31:15.091Z,6.33
2019-05-28T22:33:43.590Z,8.33
2019-05-28T22:36:12.056Z,6.70
2019-05-28T22:38:40.625Z,9.77
2019-05-28T22:41:09.020Z,5.40
2019-05-28T22:43:37.451Z,7.77
2019-05-28T22:46:05.864Z,7.87
2019-05-28T22:48:34.288Z,6.83
2019-05-28T22:51:03.615Z,6.43
2019-05-28T22:53:32.098Z,5.20
2019-05-28T22:56:00.537Z,8.97
2019-05-28T22:58:28.929Z,6.40
2019-05-28T23:00:58.356Z,7.87
2019-05-28T23:03:27.022Z,6.33
2019-05-28T23:05:55.422Z,6.77
2019-05-28T23:08:23.842Z,5.80
2019-05-28T23:10:52.260Z,6.80
2019-05-28T23:13:20.677Z,6.53
2019-05-28T23:15:49.061Z,6.97
2019-05-28T23:18:17.484Z,6.67
2019-05-28T23:20:45.883Z,6.73
2019-05-28T23:23:14.293Z,8.33
2019-05-28T23:25:42.721Z,7.63
2019-05-28T23:28:11.812Z,6.60
2019-05-28T23:30:40.464Z,5.53
2019-05-28T23:33:12.166Z,5.80
2019-05-28T23:35:39.017Z,5.93
2019-05-28T23:38:07.432Z,10.90
2019-05-28T23:40:35.861Z,9.17
2019-05-28T23:43:05.296Z,8.07
2019-05-28T23:45:33.855Z,6.90
2019-05-28T23:48:02.383Z,6.77
2019-05-28T23:50:30.784Z,5.47
2019-05-28T23:52:59.197Z,6.63
2019-05-28T23:55:27.610Z,6.13
2019-05-28T23:57:56.013Z,4.90
